createdAt,value
2018-03-25T00:00:00.842Z,929.67
2018-03-25T00:01:00.983Z,929.67
2018-03-25T00:02:00.998Z,929.67
2018-03-25T00:03:01.166Z,929.69
2018-03-25T00:04:00.919Z,929.74
2018-03-25T00:05:00.939Z,929.74
2018-03-25T00:06:00.951Z,929.71
2018-03-25T00:07:01.090Z,929.73
2018-03-25T00:08:01.204Z,929.73
2018-03-25T00:09:01.005Z,929.74
2018-03-25T00:10:01.143Z,929.78
2018-03-25T00:11:01.042Z,929.78
2018-03-25T00:12:01.051Z,929.81
2018-03-25T00:13:01.396Z,929.82
2018-03-25T00:14:01.213Z,929.80
2018-03-25T00:15:01.105Z,929.81
2018-03-25T00:16:01.130Z,929.80
2018-03-25T00:17:01.142Z,929.80
2018-03-25T00:18:01.317Z,929.84
2018-03-25T00:19:01.303Z,929.85
2018-03-25T00:20:01.320Z,929.85
2018-03-25T00:21:01.339Z,929.84
2018-03-25T00:22:01.232Z,929.87
2018-03-25T00:23:01.364Z,929.86
2018-03-25T00:24:01.275Z,929.89
2018-03-25T00:25:01.413Z,929.88
2018-03-25T00:26:01.434Z,929.90
2018-03-25T00:27:01.324Z,929.92
2018-03-25T00:28:01.496Z,929.87
2018-03-25T00:29:01.355Z,929.94
2018-03-25T00:30:01.501Z,929.91
2018-03-25T00:31:01.401Z,929.94
2018-03-25T00:32:01.412Z,929.92
2018-03-25T00:33:01.657Z,929.96
2018-03-25T00:34:01.446Z,929.96
2018-03-25T00:35:01.473Z,929.97
2018-03-25T00:36:01.608Z,929.95
2018-03-25T00:37:01.508Z,929.97
2018-03-25T00:38:01.669Z,929.95
2018-03-25T00:39:01.548Z,929.96
2018-03-25T00:40:01.681Z,929.94
2018-03-25T00:41:01.582Z,929.91
2018-03-25T00:42:01.622Z,929.94
2018-03-25T00:43:01.811Z,929.90
2018-03-25T00:44:01.752Z,929.91
2018-03-25T00:45:01.771Z,929.92
2018-03-25T00:46:01.666Z,929.90
2018-03-25T00:47:01.809Z,929.88
2018-03-25T00:48:01.737Z,929.92
2018-03-25T00:49:01.834Z,929.88
2018-03-25T00:50:01.741Z,929.88
2018-03-25T00:51:01.755Z,929.82
2018-03-25T00:52:01.778Z,929.85
2018-03-25T00:53:01.914Z,929.84
2018-03-25T00:54:02.034Z,929.86
2018-03-25T00:55:01.952Z,929.86
2018-03-25T00:56:01.971Z,929.89
2018-03-25T00:57:01.874Z,929.87
2018-03-25T00:58:02.005Z,929.85
2018-03-25T00:59:01.999Z,929.87
2018-03-25T01:00:01.916Z,929.89
2018-03-25T01:01:02.060Z,929.86
2018-03-25T01:02:01.958Z,929.86
2018-03-25T01:03:01.976Z,929.83
2018-03-25T01:04:01.996Z,929.87
2018-03-25T01:05:02.160Z,929.85
2018-03-25T01:06:02.148Z,929.84
2018-03-25T01:07:02.167Z,929.83
2018-03-25T01:08:02.187Z,929.84
2018-03-25T01:09:02.208Z,929.82
2018-03-25T01:10:02.321Z,929.80
2018-03-25T01:11:02.111Z,929.79
2018-03-25T01:12:02.146Z,929.77
2018-03-25T01:13:02.275Z,929.80
2018-03-25T01:14:02.168Z,929.79
2018-03-25T01:15:02.344Z,929.81
2018-03-25T01:16:02.333Z,929.77
2018-03-25T01:17:02.228Z,929.74
2018-03-25T01:18:02.246Z,929.72
2018-03-25T01:19:02.387Z,929.72
2018-03-25T01:20:02.551Z,929.68
2018-03-25T01:21:02.418Z,929.68
2018-03-25T01:22:02.325Z,929.74
2018-03-25T01:23:02.458Z,929.69
2018-03-25T01:24:02.480Z,929.67
2018-03-25T01:25:02.378Z,929.68
2018-03-25T01:26:02.611Z,929.72
2018-03-25T01:27:02.400Z,929.71
2018-03-25T01:28:02.432Z,929.70
2018-03-25T01:29:02.462Z,929.68
2018-03-25T01:30:02.581Z,929.70
2018-03-25T01:31:02.572Z,929.73
2018-03-25T01:32:02.616Z,929.73
2018-03-25T01:33:02.507Z,929.76
2018-03-25T01:34:02.528Z,929.73
2018-03-25T01:35:02.555Z,929.75
2018-03-25T01:36:02.790Z,929.78
2018-03-25T01:37:02.587Z,929.79
2018-03-25T01:38:02.610Z,929.81
2018-03-25T01:39:02.623Z,929.78
2018-03-25T01:40:02.760Z,929.78
2018-03-25T01:41:02.659Z,929.77
2018-03-25T01:42:02.947Z,929.83
2018-03-25T01:43:02.689Z,929.83
2018-03-25T01:44:02.832Z,929.85
2018-03-25T01:45:02.856Z,929.89
2018-03-25T01:46:02.741Z,929.87
2018-03-25T01:47:02.986Z,929.91
2018-03-25T01:48:02.906Z,929.90
2018-03-25T01:49:02.924Z,929.92
2018-03-25T01:50:02.941Z,929.96
2018-03-25T01:51:02.836Z,929.94
2018-03-25T01:52:03.013Z,929.96
2018-03-25T01:53:02.882Z,930.00
2018-03-25T01:54:03.011Z,929.99
2018-03-25T01:55:02.911Z,930.00
2018-03-25T01:56:02.921Z,930.02
2018-03-25T01:57:02.947Z,930.03
2018-03-25T01:58:03.078Z,930.01
2018-03-25T01:59:03.103Z,930.00
2018-03-25T02:00:02.992Z,930.00
2018-03-25T02:01:03.020Z,930.02
2018-03-25T02:02:03.155Z,930.04
2018-03-25T02:03:03.277Z,930.04
2018-03-25T02:04:03.077Z,930.05
2018-03-25T02:05:03.101Z,930.06
2018-03-25T02:06:03.106Z,930.07
2018-03-25T02:07:03.249Z,930.08
2018-03-25T02:08:03.235Z,930.12
2018-03-25T02:09:03.179Z,930.14
2018-03-25T02:10:03.300Z,930.14
2018-03-25T02:11:03.325Z,930.17
2018-03-25T02:12:03.217Z,930.19
2018-03-25T02:13:03.455Z,930.16
2018-03-25T02:14:03.245Z,930.20
2018-03-25T02:15:03.393Z,930.16
2018-03-25T02:16:03.411Z,930.12
2018-03-25T02:17:03.314Z,930.10
2018-03-25T02:18:03.424Z,930.11
2018-03-25T02:19:03.337Z,930.13
2018-03-25T02:20:03.362Z,930.13
2018-03-25T02:21:03.371Z,930.12
2018-03-25T02:22:03.517Z,930.11
2018-03-25T02:23:03.516Z,930.12
2018-03-25T02:24:03.426Z,930.11
2018-03-25T02:25:03.453Z,930.16
2018-03-25T02:26:03.587Z,930.14
2018-03-25T02:27:03.489Z,930.17
2018-03-25T02:28:03.778Z,930.14
2018-03-25T02:29:03.644Z,930.15
2018-03-25T02:30:03.548Z,930.17
2018-03-25T02:31:03.560Z,930.17
2018-03-25T02:32:03.584Z,930.09
2018-03-25T02:33:03.714Z,930.09
2018-03-25T02:34:03.707Z,930.09
2018-03-25T02:35:03.640Z,930.08
2018-03-25T02:36:03.634Z,930.10
2018-03-25T02:37:03.666Z,930.10
2018-03-25T02:38:03.685Z,930.08
2018-03-25T02:39:03.972Z,930.07
2018-03-25T02:40:03.722Z,930.11
2018-03-25T02:41:03.732Z,930.09
2018-03-25T02:42:03.876Z,930.14
2018-03-25T02:43:03.895Z,930.09
2018-03-25T02:44:03.945Z,930.08
2018-03-25T02:45:03.817Z,930.09
2018-03-25T02:46:03.838Z,930.05
2018-03-25T02:47:03.853Z,930.10
2018-03-25T02:48:03.982Z,930.12
2018-03-25T02:49:03.882Z,930.12
2018-03-25T02:50:03.994Z,930.13
2018-03-25T02:51:04.084Z,930.14
2018-03-25T02:52:03.936Z,930.16
2018-03-25T02:53:04.076Z,930.14
2018-03-25T02:54:03.974Z,930.12
2018-03-25T02:55:04.186Z,930.09
2018-03-25T02:56:04.127Z,930.09
2018-03-25T02:57:04.148Z,930.05
2018-03-25T02:58:04.054Z,930.04
2018-03-25T02:59:04.180Z,930.05
2018-03-25T03:00:04.354Z,930.04
2018-03-25T03:01:04.102Z,930.04
2018-03-25T03:02:04.109Z,930.06
2018-03-25T03:03:04.141Z,930.02
2018-03-25T03:04:04.143Z,930.02
2018-03-25T03:05:04.447Z,930.03
2018-03-25T03:06:04.187Z,930.03
2018-03-25T03:07:04.200Z,930.06
2018-03-25T03:08:04.341Z,930.04
2018-03-25T03:09:04.233Z,930.05
2018-03-25T03:10:04.350Z,930.04
2018-03-25T03:11:04.275Z,930.05
2018-03-25T03:12:04.413Z,930.11
2018-03-25T03:13:04.312Z,930.09
2018-03-25T03:14:04.335Z,930.12
2018-03-25T03:15:04.450Z,930.15
2018-03-25T03:16:04.372Z,930.18
2018-03-25T03:17:04.505Z,930.23
2018-03-25T03:18:04.395Z,930.18
2018-03-25T03:19:04.420Z,930.16
2018-03-25T03:20:04.580Z,930.14
2018-03-25T03:21:04.576Z,930.15
2018-03-25T03:22:04.467Z,930.19
2018-03-25T03:23:04.492Z,930.13
2018-03-25T03:24:04.517Z,930.15
2018-03-25T03:25:04.648Z,930.14
2018-03-25T03:26:04.702Z,930.14
2018-03-25T03:27:04.693Z,930.10
2018-03-25T03:28:04.573Z,930.12
2018-03-25T03:29:04.740Z,930.14
2018-03-25T03:30:04.627Z,930.15
2018-03-25T03:31:04.772Z,930.14
2018-03-25T03:32:04.770Z,930.13
2018-03-25T03:33:04.662Z,930.10
2018-03-25T03:34:04.687Z,930.09
2018-03-25T03:35:04.699Z,930.05
2018-03-25T03:36:04.868Z,930.10
2018-03-25T03:37:04.864Z,930.05
2018-03-25T03:38:04.894Z,930.05
2018-03-25T03:39:04.898Z,930.07
2018-03-25T03:40:04.913Z,930.05
2018-03-25T03:41:04.934Z,930.07
2018-03-25T03:42:04.936Z,930.08
2018-03-25T03:43:04.843Z,930.10
2018-03-25T03:44:04.986Z,930.10
2018-03-25T03:45:05.008Z,930.12
2018-03-25T03:46:04.895Z,930.12
2018-03-25T03:47:05.071Z,930.10
2018-03-25T03:48:04.931Z,930.09
2018-03-25T03:49:04.957Z,930.06
2018-03-25T03:50:04.971Z,930.04
2018-03-25T03:51:04.983Z,930.06
2018-03-25T03:52:05.151Z,930.07
2018-03-25T03:53:05.029Z,930.03
2018-03-25T03:54:05.044Z,930.02
2018-03-25T03:55:05.062Z,930.04
2018-03-25T03:56:05.201Z,930.02
2018-03-25T03:57:05.323Z,929.98
2018-03-25T03:58:05.110Z,929.99
2018-03-25T03:59:05.255Z,929.98
2018-03-25T04:00:05.274Z,929.98
2018-03-25T04:01:05.289Z,929.96
2018-03-25T04:02:05.353Z,929.97
2018-03-25T04:03:05.328Z,930.00
2018-03-25T04:04:05.224Z,929.99
2018-03-25T04:05:05.248Z,930.00
2018-03-25T04:06:05.378Z,930.02
2018-03-25T04:07:05.420Z,930.01
2018-03-25T04:08:05.413Z,930.04
2018-03-25T04:09:05.340Z,929.99
2018-03-25T04:10:05.324Z,929.99
2018-03-25T04:11:05.348Z,929.98
2018-03-25T04:12:05.508Z,930.02
2018-03-25T04:14:05.386Z,930.03
2018-03-25T04:15:05.419Z,930.05
2018-03-25T04:16:05.444Z,930.02
2018-03-25T04:17:05.449Z,930.05
2018-03-25T04:18:05.606Z,930.01
2018-03-25T04:19:05.499Z,929.98
2018-03-25T04:20:05.497Z,929.97
2018-03-25T04:21:05.535Z,929.96
2018-03-25T04:22:05.551Z,929.95
2018-03-25T04:23:05.709Z,929.93
2018-03-25T04:24:05.563Z,929.98
2018-03-25T04:25:05.593Z,929.94
2018-03-25T04:26:05.598Z,929.99
2018-03-25T04:27:05.622Z,929.95
2018-03-25T04:28:05.838Z,929.94
2018-03-25T04:29:05.785Z,929.94
2018-03-25T04:30:05.807Z,929.89
2018-03-25T04:31:05.686Z,929.88
2018-03-25T04:32:05.704Z,929.87
2018-03-25T04:33:05.844Z,929.87
2018-03-25T04:34:05.760Z,929.85
2018-03-25T04:35:05.778Z,929.85
2018-03-25T04:36:05.790Z,929.89
2018-03-25T04:37:05.794Z,929.86
2018-03-25T04:38:05.979Z,929.87
2018-03-25T04:39:05.850Z,929.88
2018-03-25T04:40:05.865Z,929.86
2018-03-25T04:41:05.866Z,929.85
2018-03-25T04:42:05.906Z,929.86
2018-03-25T04:43:06.049Z,929.79
2018-03-25T04:44:05.945Z,929.79
2018-03-25T04:45:05.940Z,929.76
2018-03-25T04:46:05.952Z,929.78
2018-03-25T04:47:05.982Z,929.77
2018-03-25T04:48:05.990Z,929.79
2018-03-25T04:49:06.183Z,929.81
2018-03-25T04:50:06.048Z,929.79
2018-03-25T04:51:06.041Z,929.79
2018-03-25T04:52:06.079Z,929.77
2018-03-25T04:53:06.087Z,929.74
2018-03-25T04:54:06.250Z,929.72
2018-03-25T04:55:06.138Z,929.70
2018-03-25T04:56:06.167Z,929.63
2018-03-25T04:57:06.168Z,929.63
2018-03-25T04:58:06.164Z,929.59
2018-03-25T04:59:06.343Z,929.53
2018-03-25T05:00:06.209Z,929.55
2018-03-25T05:01:06.245Z,929.51
2018-03-25T05:02:06.238Z,929.54
2018-03-25T05:03:06.262Z,929.54
2018-03-25T05:04:06.447Z,929.50
2018-03-25T05:05:06.287Z,929.45
2018-03-25T05:06:06.325Z,929.47
2018-03-25T05:07:06.337Z,929.43
2018-03-25T05:08:06.360Z,929.46
2018-03-25T05:09:06.371Z,929.48
2018-03-25T05:10:06.523Z,929.49
2018-03-25T05:11:06.404Z,929.49
2018-03-25T05:12:06.410Z,929.46
2018-03-25T05:13:06.427Z,929.46
2018-03-25T05:14:06.444Z,929.46
2018-03-25T05:15:06.613Z,929.46
2018-03-25T05:16:06.504Z,929.46
2018-03-25T05:17:06.496Z,929.46
2018-03-25T05:18:06.517Z,929.44
2018-03-25T05:19:06.553Z,929.42
2018-03-25T05:20:06.698Z,929.42
2018-03-25T05:21:06.571Z,929.42
2018-03-25T05:22:06.595Z,929.45
2018-03-25T05:23:06.603Z,929.48
2018-03-25T05:24:06.618Z,929.45
2018-03-25T05:25:06.637Z,929.47
2018-03-25T05:26:06.829Z,929.48
2018-03-25T05:27:06.672Z,929.47
2018-03-25T05:28:06.688Z,929.44
2018-03-25T05:29:06.724Z,929.45
2018-03-25T05:30:06.723Z,929.44
2018-03-25T05:31:06.743Z,929.43
2018-03-25T05:32:06.920Z,929.40
2018-03-25T05:33:06.798Z,929.42
2018-03-25T05:34:06.870Z,929.37
2018-03-25T05:35:06.826Z,929.43
2018-03-25T05:36:06.829Z,929.40
2018-03-25T05:37:07.000Z,929.41
2018-03-25T05:38:06.885Z,929.40
2018-03-25T05:39:06.894Z,929.38
2018-03-25T05:40:06.915Z,929.37
2018-03-25T05:41:06.942Z,929.34
2018-03-25T05:42:07.051Z,929.40
2018-03-25T05:43:06.960Z,929.34
2018-03-25T05:44:06.987Z,929.34
2018-03-25T05:45:06.983Z,929.33
2018-03-25T05:46:07.002Z,929.31
2018-03-25T05:47:07.184Z,929.28
2018-03-25T05:48:07.043Z,929.26
2018-03-25T05:49:07.059Z,929.27
2018-03-25T05:50:07.085Z,929.26
2018-03-25T05:51:07.092Z,929.23
2018-03-25T05:52:07.270Z,929.26
2018-03-25T05:53:07.124Z,929.26
2018-03-25T05:54:07.152Z,929.29
2018-03-25T05:55:07.168Z,929.29
2018-03-25T05:56:07.173Z,929.31
2018-03-25T05:57:07.292Z,929.33
2018-03-25T05:58:07.212Z,929.31
2018-03-25T05:59:07.241Z,929.31
2018-03-25T06:00:07.264Z,929.28
2018-03-25T06:01:07.275Z,929.28
2018-03-25T06:02:07.432Z,929.25
2018-03-25T06:03:07.322Z,929.21
2018-03-25T06:04:07.317Z,929.19
2018-03-25T06:05:07.356Z,929.19
2018-03-25T06:06:07.481Z,929.19
2018-03-25T06:07:07.581Z,929.19
2018-03-25T06:08:07.393Z,929.23
2018-03-25T06:09:07.422Z,929.22
2018-03-25T06:10:07.432Z,929.22
2018-03-25T06:11:07.454Z,929.25
2018-03-25T06:12:07.563Z,929.19
2018-03-25T06:13:07.475Z,929.20
2018-03-25T06:14:07.505Z,929.17
2018-03-25T06:15:07.509Z,929.13
2018-03-25T06:16:07.519Z,929.12
2018-03-25T06:17:07.687Z,929.07
2018-03-25T06:18:07.553Z,929.02
2018-03-25T06:19:07.571Z,929.01
2018-03-25T06:20:07.612Z,929.00
2018-03-25T06:21:07.627Z,929.00
2018-03-25T06:22:07.640Z,929.02
2018-03-25T06:23:07.817Z,929.03
2018-03-25T06:24:07.668Z,929.01
2018-03-25T06:25:07.678Z,929.03
2018-03-25T06:26:07.712Z,928.97
2018-03-25T06:27:07.722Z,928.95
2018-03-25T06:28:07.896Z,928.91
2018-03-25T06:29:07.747Z,928.87
2018-03-25T06:30:07.903Z,928.83
2018-03-25T06:31:07.803Z,928.86
2018-03-25T06:32:07.797Z,928.82
2018-03-25T06:33:07.987Z,928.85
2018-03-25T06:34:07.850Z,928.85
2018-03-25T06:35:07.850Z,928.84
2018-03-25T06:36:07.883Z,928.87
2018-03-25T06:37:07.891Z,928.80
2018-03-25T06:38:07.909Z,928.81
2018-03-25T06:39:08.085Z,928.75
2018-03-25T06:40:07.948Z,928.69
2018-03-25T06:41:07.953Z,928.67
2018-03-25T06:42:07.989Z,928.66
2018-03-25T06:43:08.003Z,928.67
2018-03-25T06:44:08.122Z,928.72
2018-03-25T06:45:08.020Z,928.71
2018-03-25T06:46:08.044Z,928.72
2018-03-25T06:47:08.054Z,928.76
2018-03-25T06:48:08.085Z,928.81
2018-03-25T06:49:08.261Z,928.84
2018-03-25T06:50:08.101Z,928.84
2018-03-25T06:51:08.120Z,928.80
2018-03-25T06:52:08.150Z,928.78
2018-03-25T06:53:08.173Z,928.82
2018-03-25T06:54:08.342Z,928.83
2018-03-25T06:55:08.199Z,928.85
2018-03-25T06:56:08.203Z,928.84
2018-03-25T06:57:08.234Z,928.86
2018-03-25T06:58:08.249Z,928.86
2018-03-25T06:59:08.405Z,928.89
2018-03-25T07:00:08.289Z,928.91
2018-03-25T07:01:08.312Z,928.90
2018-03-25T07:02:08.331Z,928.95
2018-03-25T07:03:08.339Z,928.90
2018-03-25T07:04:08.513Z,928.92
2018-03-25T07:05:08.367Z,928.96
2018-03-25T07:06:08.387Z,929.01
2018-03-25T07:07:08.391Z,929.03
2018-03-25T07:08:08.412Z,929.05
2018-03-25T07:09:08.599Z,929.02
2018-03-25T07:10:08.463Z,929.10
2018-03-25T07:11:08.482Z,929.08
2018-03-25T07:12:08.494Z,929.09
2018-03-25T07:13:08.493Z,929.16
2018-03-25T07:14:08.671Z,929.13
2018-03-25T07:15:08.551Z,929.13
2018-03-25T07:16:08.551Z,929.16
2018-03-25T07:17:08.561Z,929.08
2018-03-25T07:18:08.581Z,929.08
2018-03-25T07:19:08.745Z,929.15
2018-03-25T07:20:08.622Z,929.07
2018-03-25T07:21:08.654Z,929.07
2018-03-25T07:22:08.665Z,929.12
2018-03-25T07:23:08.673Z,929.14
2018-03-25T07:24:08.830Z,929.16
2018-03-25T07:25:08.711Z,929.18
2018-03-25T07:26:08.715Z,929.19
2018-03-25T07:27:08.752Z,929.16
2018-03-25T07:28:08.756Z,929.20
2018-03-25T07:29:08.916Z,929.24
2018-03-25T07:30:08.829Z,929.23
2018-03-25T07:31:08.822Z,929.27
2018-03-25T07:32:08.815Z,929.22
2018-03-25T07:33:08.844Z,929.24
2018-03-25T07:34:09.021Z,929.25
2018-03-25T07:35:08.888Z,929.29
2018-03-25T07:36:08.900Z,929.30
2018-03-25T07:37:08.923Z,929.35
2018-03-25T07:38:08.931Z,929.37
2018-03-25T07:39:09.098Z,929.34
2018-03-25T07:40:08.955Z,929.37
2018-03-25T07:41:08.997Z,929.38
2018-03-25T07:42:09.006Z,929.36
2018-03-25T07:43:09.006Z,929.36
2018-03-25T07:44:09.194Z,929.35
2018-03-25T07:45:09.050Z,929.35
2018-03-25T07:46:09.080Z,929.34
2018-03-25T07:47:09.081Z,929.34
2018-03-25T07:48:09.093Z,929.34
2018-03-25T07:49:09.264Z,929.35
2018-03-25T07:50:09.208Z,929.37
2018-03-25T07:51:09.144Z,929.40
2018-03-25T07:52:09.187Z,929.35
2018-03-25T07:53:09.192Z,929.38
2018-03-25T07:54:09.370Z,929.40
2018-03-25T07:55:09.240Z,929.40
2018-03-25T07:56:09.228Z,929.41
2018-03-25T07:57:09.252Z,929.41
2018-03-25T07:58:09.275Z,929.43
2018-03-25T07:59:09.457Z,929.47
2018-03-25T08:00:09.310Z,929.48
2018-03-25T08:01:09.333Z,929.46
2018-03-25T08:02:09.344Z,929.51
2018-03-25T08:03:09.351Z,929.50
2018-03-25T08:04:09.530Z,929.51
2018-03-25T08:05:09.384Z,929.48
2018-03-25T08:06:09.411Z,929.49
2018-03-25T08:07:09.423Z,929.49
2018-03-25T08:08:09.449Z,929.48
2018-03-25T08:09:09.607Z,929.46
2018-03-25T08:10:09.510Z,929.50
2018-03-25T08:11:09.503Z,929.45
2018-03-25T08:12:09.524Z,929.48
2018-03-25T08:13:09.528Z,929.50
2018-03-25T08:14:09.700Z,929.51
2018-03-25T08:15:09.577Z,929.53
2018-03-25T08:16:09.605Z,929.55
2018-03-25T08:17:09.608Z,929.57
2018-03-25T08:18:09.632Z,929.56
2018-03-25T08:19:09.784Z,929.58
2018-03-25T08:20:09.638Z,929.59
2018-03-25T08:21:09.661Z,929.58
2018-03-25T08:22:09.700Z,929.62
2018-03-25T08:23:09.709Z,929.59
2018-03-25T08:24:09.867Z,929.62
2018-03-25T08:25:09.747Z,929.68
2018-03-25T08:26:09.741Z,929.66
2018-03-25T08:27:09.777Z,929.69
2018-03-25T08:28:09.788Z,929.64
2018-03-25T08:29:09.946Z,929.68
2018-03-25T08:30:09.810Z,929.68
2018-03-25T08:31:09.839Z,929.67
2018-03-25T08:32:09.862Z,929.70
2018-03-25T08:33:09.870Z,929.70
2018-03-25T08:34:10.002Z,929.69
2018-03-25T08:35:09.919Z,929.72
2018-03-25T08:36:09.922Z,929.77
2018-03-25T08:37:09.937Z,929.84
2018-03-25T08:38:09.963Z,929.84
2018-03-25T08:39:10.086Z,929.87
2018-03-25T08:40:09.998Z,929.91
2018-03-25T08:41:09.998Z,929.91
2018-03-25T08:43:10.029Z,929.93
2018-03-25T08:44:10.206Z,929.95
2018-03-25T08:45:10.061Z,929.99
2018-03-25T08:46:10.098Z,929.95
2018-03-25T08:47:10.109Z,929.99
2018-03-25T08:48:10.127Z,930.01
2018-03-25T08:49:10.288Z,930.07
2018-03-25T08:50:10.166Z,930.08
2018-03-25T08:51:10.170Z,930.08
2018-03-25T08:52:10.311Z,930.08
2018-03-25T08:53:10.202Z,930.11
2018-03-25T08:54:10.322Z,930.06
2018-03-25T08:55:10.363Z,930.05
2018-03-25T08:56:10.378Z,930.04
2018-03-25T08:57:10.269Z,930.06
2018-03-25T08:58:10.296Z,930.07
2018-03-25T08:59:10.454Z,930.09
2018-03-25T09:00:10.332Z,930.10
2018-03-25T09:01:10.341Z,930.14
2018-03-25T09:02:10.354Z,930.16
2018-03-25T09:03:10.379Z,930.19
2018-03-25T09:04:10.386Z,930.15
2018-03-25T09:05:10.680Z,930.21
2018-03-25T09:06:10.548Z,930.20
2018-03-25T09:07:10.439Z,930.17
2018-03-25T09:08:10.581Z,930.18
2018-03-25T09:09:10.597Z,930.16
2018-03-25T09:10:10.650Z,930.21
2018-03-25T09:11:10.509Z,930.21
2018-03-25T09:12:10.537Z,930.21
2018-03-25T09:13:10.540Z,930.21
2018-03-25T09:14:10.556Z,930.23
2018-03-25T09:15:10.798Z,930.19
2018-03-25T09:16:10.589Z,930.20
2018-03-25T09:17:10.611Z,930.21
2018-03-25T09:18:10.628Z,930.17
2018-03-25T09:19:10.638Z,930.19
2018-03-25T09:20:10.931Z,930.18
2018-03-25T09:21:10.672Z,930.19
2018-03-25T09:22:10.695Z,930.20
2018-03-25T09:23:10.831Z,930.20
2018-03-25T09:24:10.848Z,930.22
2018-03-25T09:25:10.749Z,930.22
2018-03-25T09:26:10.868Z,930.25
2018-03-25T09:27:10.790Z,930.25
2018-03-25T09:28:10.790Z,930.28
2018-03-25T09:29:10.804Z,930.32
2018-03-25T09:30:10.829Z,930.33
2018-03-25T09:31:11.114Z,930.32
2018-03-25T09:32:10.863Z,930.30
2018-03-25T09:33:10.871Z,930.28
2018-03-25T09:34:11.018Z,930.25
2018-03-25T09:35:11.031Z,930.24
2018-03-25T09:36:11.074Z,930.27
2018-03-25T09:37:10.987Z,930.23
2018-03-25T09:38:10.955Z,930.27
2018-03-25T09:39:11.101Z,930.28
2018-03-25T09:40:10.989Z,930.25
2018-03-25T09:41:11.021Z,930.29
2018-03-25T09:42:11.142Z,930.28
2018-03-25T09:43:11.167Z,930.32
2018-03-25T09:44:11.183Z,930.34
2018-03-25T09:45:11.205Z,930.32
2018-03-25T09:46:11.089Z,930.32
2018-03-25T09:47:11.300Z,930.36
2018-03-25T09:48:11.137Z,930.36
2018-03-25T09:49:11.270Z,930.43
2018-03-25T09:50:11.290Z,930.47
2018-03-25T09:51:11.273Z,930.52
2018-03-25T09:52:11.474Z,930.56
2018-03-25T09:53:11.220Z,930.56
2018-03-25T09:54:11.238Z,930.61
2018-03-25T09:55:11.249Z,930.62
2018-03-25T09:56:11.275Z,930.64
2018-03-25T09:57:11.562Z,930.59
2018-03-25T09:58:11.432Z,930.63
2018-03-25T09:59:11.450Z,930.63
2018-03-25T10:00:11.468Z,930.63
2018-03-25T10:01:11.359Z,930.63
2018-03-25T10:02:11.507Z,930.65
2018-03-25T10:03:11.511Z,930.69
2018-03-25T10:04:11.545Z,930.72
2018-03-25T10:05:11.449Z,930.68
2018-03-25T10:06:11.582Z,930.65
2018-03-25T10:07:11.471Z,930.67
2018-03-25T10:08:11.490Z,930.70
2018-03-25T10:09:11.617Z,930.70
2018-03-25T10:11:11.561Z,930.70
2018-03-25T10:12:11.698Z,930.72
2018-03-25T10:13:11.601Z,930.74
2018-03-25T10:14:11.721Z,930.78
2018-03-25T10:15:11.634Z,930.77
2018-03-25T10:16:11.658Z,930.80
2018-03-25T10:17:11.799Z,930.82
2018-03-25T10:18:11.821Z,930.80
2018-03-25T10:19:11.714Z,930.84
2018-03-25T10:20:11.893Z,930.82
2018-03-25T10:21:11.885Z,930.85
2018-03-25T10:22:11.904Z,930.84
2018-03-25T10:23:11.801Z,930.84
2018-03-25T10:24:11.817Z,930.85
2018-03-25T10:25:11.847Z,930.87
2018-03-25T10:26:12.020Z,930.90
2018-03-25T10:27:12.004Z,930.90
2018-03-25T10:28:12.028Z,930.92
2018-03-25T10:29:11.931Z,930.91
2018-03-25T10:30:11.951Z,930.98
2018-03-25T10:31:12.161Z,930.97
2018-03-25T10:32:11.984Z,931.00
2018-03-25T10:33:12.005Z,931.02
2018-03-25T10:34:12.020Z,930.98
2018-03-25T10:35:12.046Z,930.98
2018-03-25T10:36:12.335Z,930.96
2018-03-25T10:37:12.087Z,931.02
2018-03-25T10:38:12.227Z,931.02
2018-03-25T10:39:12.122Z,931.02
2018-03-25T10:41:12.261Z,931.01
2018-03-25T10:42:12.191Z,931.07
2018-03-25T10:43:12.214Z,931.07
2018-03-25T10:44:12.349Z,931.08
2018-03-25T10:45:12.367Z,931.07
2018-03-25T10:46:12.543Z,931.02
2018-03-25T10:47:12.409Z,931.06
2018-03-25T10:48:12.311Z,931.06
2018-03-25T10:49:12.323Z,931.05
2018-03-25T10:50:12.345Z,931.07
2018-03-25T10:51:12.642Z,931.06
2018-03-25T10:52:12.384Z,931.08
2018-03-25T10:53:12.405Z,931.07
2018-03-25T10:54:12.439Z,931.10
2018-03-25T10:55:12.579Z,931.12
2018-03-25T10:56:12.476Z,931.16
2018-03-25T10:57:12.647Z,931.16
2018-03-25T10:58:12.639Z,931.22
2018-03-25T10:59:12.541Z,931.19
2018-03-25T11:00:12.678Z,931.20
2018-03-25T11:01:12.581Z,931.20
2018-03-25T11:02:12.594Z,931.21
2018-03-25T11:03:12.891Z,931.15
2018-03-25T11:04:12.766Z,931.18
2018-03-25T11:05:12.784Z,931.15
2018-03-25T11:06:12.807Z,931.13
2018-03-25T11:07:12.831Z,931.16
2018-03-25T11:08:12.954Z,931.19
2018-03-25T11:09:12.751Z,931.16
2018-03-25T11:10:12.899Z,931.22
2018-03-25T11:11:12.791Z,931.22
2018-03-25T11:12:12.825Z,931.23
2018-03-25T11:13:13.000Z,931.25
2018-03-25T11:14:12.875Z,931.31
2018-03-25T11:15:12.882Z,931.29
2018-03-25T11:16:12.914Z,931.33
2018-03-25T11:17:12.928Z,931.35
2018-03-25T11:18:13.052Z,931.37
2018-03-25T11:19:12.984Z,931.31
2018-03-25T11:20:13.046Z,931.36
2018-03-25T11:21:13.025Z,931.37
2018-03-25T11:22:13.174Z,931.42
2018-03-25T11:23:13.298Z,931.39
2018-03-25T11:24:13.112Z,931.32
2018-03-25T11:25:13.127Z,931.35
2018-03-25T11:26:13.271Z,931.31
2018-03-25T11:27:13.302Z,931.33
2018-03-25T11:28:13.290Z,931.29
2018-03-25T11:29:13.347Z,931.23
2018-03-25T11:30:13.251Z,931.29
2018-03-25T11:31:13.268Z,931.28
2018-03-25T11:32:13.418Z,931.31
2018-03-25T11:33:13.416Z,931.33
2018-03-25T11:34:13.468Z,931.38
2018-03-25T11:35:13.365Z,931.34
2018-03-25T11:36:13.516Z,931.35
2018-03-25T11:37:13.542Z,931.42
2018-03-25T11:38:13.546Z,931.44
2018-03-25T11:39:13.462Z,931.46
2018-03-25T11:40:13.540Z,931.43
2018-03-25T11:41:13.644Z,931.58
2018-03-25T11:42:13.536Z,931.42
2018-03-25T11:43:13.711Z,931.45
2018-03-25T11:44:13.597Z,931.46
2018-03-25T11:45:13.738Z,931.44
2018-03-25T11:46:13.636Z,931.47
2018-03-25T11:47:13.669Z,931.54
2018-03-25T11:48:13.681Z,931.47
2018-03-25T11:49:13.931Z,931.51
2018-03-25T11:50:13.742Z,931.46
2018-03-25T11:51:13.879Z,931.47
2018-03-25T11:52:13.902Z,931.44
2018-03-25T11:53:13.825Z,931.42
2018-03-25T11:54:14.054Z,931.37
2018-03-25T11:55:13.855Z,931.39
2018-03-25T11:56:13.870Z,931.46
2018-03-25T11:57:13.904Z,931.44
2018-03-25T11:58:13.930Z,931.43
2018-03-25T11:59:14.042Z,931.34
2018-03-25T12:00:13.973Z,931.41
2018-03-25T12:01:13.990Z,931.39
2018-03-25T12:02:14.140Z,931.36
2018-03-25T12:03:14.049Z,931.34
2018-03-25T12:04:14.058Z,931.37
2018-03-25T12:05:14.312Z,931.31
2018-03-25T12:06:14.232Z,931.32
2018-03-25T12:07:14.144Z,931.30
2018-03-25T12:08:14.281Z,931.29
2018-03-25T12:09:14.301Z,931.40
2018-03-25T12:10:14.308Z,931.35
2018-03-25T12:11:14.246Z,931.37
2018-03-25T12:12:14.371Z,931.34
2018-03-25T12:13:14.268Z,931.30
2018-03-25T12:14:14.291Z,931.32
2018-03-25T12:15:14.543Z,931.40
2018-03-25T12:16:14.338Z,931.43
2018-03-25T12:17:14.373Z,931.58
2018-03-25T12:18:14.510Z,931.46
2018-03-25T12:19:14.415Z,931.65
2018-03-25T12:20:14.592Z,931.57
2018-03-25T12:21:14.577Z,931.49
2018-03-25T12:22:14.481Z,931.60
2018-03-25T12:23:14.497Z,931.87
2018-03-25T12:24:14.530Z,931.67
2018-03-25T12:25:14.817Z,931.59
2018-03-25T12:26:14.691Z,931.50
2018-03-25T12:27:14.715Z,931.51
2018-03-25T12:28:14.623Z,931.49
2018-03-25T12:29:14.629Z,931.50
2018-03-25T12:30:14.810Z,931.48
2018-03-25T12:31:14.800Z,931.51
2018-03-25T12:32:14.695Z,931.53